New Century 1 — H9LA — position and weather

sailwx.info

Track history (hours):
 
Tides and Currents Weather Stations Pressure Air Temp Water Temp Dewpoint Dewpoint Depression Visibility Wind Speed Wind Dir Waves Ship Positions

New Century 1

Last reported at 2014-Nov-25 17:33 UTC. Time now 2014-Dec-19 17:31 UTC.
Position N 38°37' W 124°45'.
Warning: this ship's position is 23 days out of date.

Length 200 m; beam 32.3 m.

Type: Cargo ship. MMSI: 355234000.

Date/timePositionNaut miles runAvg speedWind from/ knotsBaromVisibWave heightAir tempDewpointWater temp
2014-Nov-25 17:33N 38°37' W 124°45'2316.2
2014-Nov-25 16:07N 38°27' W 124°18'916.2
2014-Nov-25 15:33N 38°23' W 124°07'1616.5
2014-Nov-25 14:34N 38°16' W 123°48'1616.2
2014-Nov-25 13:33N 38°10' W 123°29'1515.5
2014-Nov-25 12:33N 38°02' W 123°12'1616.3
2014-Nov-25 11:33N 37°53' W 122°55'1414.0
2014-Nov-25 10:33N 37°46' W 122°40'1313.3
2014-Nov-25 09:33N 37°52' W 122°25'1212.0
2014-Nov-25 08:33N 38°03' W 122°20'9 8.6
2014-Nov-25 07:30N 38°02' W 122°08'0 0.0
2014-Nov-25 06:30N 38°02' W 122°08'0 0.0
2014-Nov-25 05:30N 38°02' W 122°08'0 0.0
2014-Nov-25 04:30N 38°02' W 122°08'0 0.0
2014-Nov-25 03:30N 38°02' W 122°08'0 0.0
2014-Nov-25 02:30N 38°02' W 122°08'0 0.0
2014-Nov-25 01:28N 38°02' W 122°08'0 0.0
2014-Nov-25 00:16N 38°02' W 122°08'0 0.0
2014-Nov-24 23:04N 38°02' W 122°08'0 0.0
2014-Nov-24 22:28N 38°02' W 122°08'0 0.0
2014-Nov-24 21:28N 38°02' W 122°08'0 0.0
2014-Nov-24 20:22N 38°02' W 122°08'0 0.0
2014-Nov-24 19:16N 38°02' W 122°08'0 0.0
2014-Nov-24 18:28N 38°02' W 122°08'0 0.0
2014-Nov-24 17:28N 38°02' W 122°08'0 0.0
2014-Nov-24 16:28N 38°02' W 122°08'0 0.0
2014-Nov-24 15:28N 38°02' W 122°08'0 0.0
2014-Nov-24 14:28N 38°02' W 122°08'0 0.0
2014-Nov-24 13:28N 38°02' W 122°08'0 0.0
2014-Nov-24 12:28N 38°02' W 122°08'0 0.0
2014-Nov-24 11:28N 38°02' W 122°08'0 0.0
2014-Nov-24 10:28N 38°02' W 122°08'0 0.0
2014-Nov-24 09:28N 38°02' W 122°08'0 0.0
2014-Nov-24 08:28N 38°02' W 122°08'0 0.0
2014-Nov-24 07:28N 38°02' W 122°08'0 0.3
2014-Nov-24 06:33N 38°02' W 122°08'1111.4
2014-Nov-24 05:33N 38°02' W 122°23'1312.7
2014-Nov-24 04:33N 37°49' W 122°25'1313.3
2014-Nov-24 03:34N 37°44' W 122°41'8 8.0
2014-Nov-24 02:33N 37°36' W 122°40'9 9.2
2014-Nov-24 01:33N 37°27' W 122°40'1615.7
2014-Nov-24 00:33N 37°11' W 122°40'1515.5
2014-Nov-23 23:33N 36°56' W 122°40'1615.8
2014-Nov-23 22:33N 36°40' W 122°37'1615.7
2014-Nov-23 21:33N 36°25' W 122°32'1515.3
2014-Nov-23 20:33N 36°10' W 122°27'1515.4
2014-Nov-23 19:33N 35°56' W 122°22'1615.8
2014-Nov-23 18:33N 35°41' W 122°16'1615.6
2014-Nov-23 17:33N 35°28' W 122°04'1514.9
2014-Nov-23 16:33N 35°17' W 121°53'1514.8
2014-Nov-23 15:33N 35°05' W 121°41'1515.3
2014-Nov-23 14:33N 34°53' W 121°30'1615.7
2014-Nov-23 13:33N 34°41' W 121°18'1514.8
2014-Nov-23 12:32N 34°29' W 121°06'3215.9
2014-Nov-23 10:33N 34°21' W 120°29'1616.3
2014-Nov-23 09:33N 34°17' W 120°10'1716.7
2014-Nov-23 08:33N 34°12' W 119°50'1717.3
2014-Nov-23 07:33N 34°07' W 119°30'1917.6
2014-Nov-23 06:30N 34°01' W 119°09'2811.8
2014-Nov-23 04:05N 33°47' W 118°39'610.6
2014-Nov-23 03:33N 33°44' W 118°33'1110.6
2014-Nov-23 02:33N 33°39' W 118°22'9 9.1
2014-Nov-23 01:33N 33°41' W 118°12'6 6.0
2014-Nov-23 00:33N 33°46' W 118°13'0 0.1
2014-Nov-22 23:33N 33°46' W 118°13'0 0.0
2014-Nov-22 22:33N 33°46' W 118°13'0 0.0
2014-Nov-22 21:30N 33°46' W 118°13'0 0.0
2014-Nov-22 20:33N 33°46' W 118°13'0 0.0
2014-Nov-22 19:33N 33°46' W 118°13'0 0.0
2014-Nov-22 18:33N 33°46' W 118°13'0 0.0
2014-Nov-22 17:33N 33°46' W 118°13'0 0.0
2014-Nov-22 16:33N 33°46' W 118°13'0 0.0
2014-Nov-22 15:33N 33°46' W 118°13'0 0.0
2014-Nov-22 14:33N 33°46' W 118°13'0 0.0
2014-Nov-22 13:33N 33°46' W 118°13'0 0.0
2014-Nov-22 12:33N 33°46' W 118°13'0 0.0
2014-Nov-22 11:33N 33°46' W 118°13'0 0.0
2014-Nov-22 10:33N 33°46' W 118°13'0 0.0
2014-Nov-22 09:33N 33°46' W 118°13'0 0.0
2014-Nov-22 08:33N 33°46' W 118°13'0 0.0
2014-Nov-22 07:33N 33°46' W 118°13'0 0.0
2014-Nov-22 06:33N 33°46' W 118°13'0 0.0
2014-Nov-22 05:33N 33°46' W 118°13'0 0.0
2014-Nov-22 04:33N 33°46' W 118°13'0 0.0
2014-Nov-22 03:33N 33°46' W 118°13'0 0.0
2014-Nov-22 02:33N 33°46' W 118°13'1 0.5
2014-Nov-22 01:33N 33°46' W 118°13'3110.2
2014-Nov-21 22:31N 33°16' W 118°03'1111.2
2014-Nov-21 21:33N 33°05' W 118°04'1414.0
2014-Nov-21 20:34N 32°55' W 117°53'1616.0
2014-Nov-21 19:33N 32°39' W 117°49'1716.7
2014-Nov-21 18:32N 32°22' W 117°50'1010.3
2014-Nov-21 17:33N 32°12' W 117°51'2 1.5
2014-Nov-21 16:33N 32°13' W 117°52'2 1.6
2014-Nov-21 15:29N 32°14' W 117°54'2 1.7
2014-Nov-21 14:07N 32°16' W 117°56'2 1.5
2014-Nov-21 13:06N 32°16' W 117°57'8915.0
2014-Nov-21 07:09N 32°01' W 119°41'  
Track history (hours):
 
Tides and Currents Weather Stations Pressure Air Temp Water Temp Dewpoint Dewpoint Depression Visibility Wind Speed Wind Dir Waves Ship Positions

New Century 1

Last reported at 2014-Nov-25 17:33 UTC. Time now 2014-Dec-19 17:31 UTC.
Position N 38°37' W 124°45'.
Warning: this ship's position is 23 days out of date.

Length 200 m; beam 32.3 m.

Type: Cargo ship. MMSI: 355234000.

Date/timePositionNaut miles runAvg speedWind from/ knotsBaromVisibWave heightAir tempDewpointWater temp
2014-Nov-25 17:33N 38°37' W 124°45'2316.2
2014-Nov-25 16:07N 38°27' W 124°18'916.2
2014-Nov-25 15:33N 38°23' W 124°07'1616.5
2014-Nov-25 14:34N 38°16' W 123°48'1616.2
2014-Nov-25 13:33N 38°10' W 123°29'1515.5
2014-Nov-25 12:33N 38°02' W 123°12'1616.3
2014-Nov-25 11:33N 37°53' W 122°55'1414.0
2014-Nov-25 10:33N 37°46' W 122°40'1313.3
2014-Nov-25 09:33N 37°52' W 122°25'1212.0
2014-Nov-25 08:33N 38°03' W 122°20'9 8.6
2014-Nov-25 07:30N 38°02' W 122°08'0 0.0
2014-Nov-25 06:30N 38°02' W 122°08'0 0.0
2014-Nov-25 05:30N 38°02' W 122°08'0 0.0
2014-Nov-25 04:30N 38°02' W 122°08'0 0.0
2014-Nov-25 03:30N 38°02' W 122°08'0 0.0
2014-Nov-25 02:30N 38°02' W 122°08'0 0.0
2014-Nov-25 01:28N 38°02' W 122°08'0 0.0
2014-Nov-25 00:16N 38°02' W 122°08'0 0.0
2014-Nov-24 23:04N 38°02' W 122°08'0 0.0
2014-Nov-24 22:28N 38°02' W 122°08'0 0.0
2014-Nov-24 21:28N 38°02' W 122°08'0 0.0
2014-Nov-24 20:22N 38°02' W 122°08'0 0.0
2014-Nov-24 19:16N 38°02' W 122°08'0 0.0
2014-Nov-24 18:28N 38°02' W 122°08'0 0.0
2014-Nov-24 17:28N 38°02' W 122°08'0 0.0
2014-Nov-24 16:28N 38°02' W 122°08'0 0.0
2014-Nov-24 15:28N 38°02' W 122°08'0 0.0
2014-Nov-24 14:28N 38°02' W 122°08'0 0.0
2014-Nov-24 13:28N 38°02' W 122°08'0 0.0
2014-Nov-24 12:28N 38°02' W 122°08'0 0.0
2014-Nov-24 11:28N 38°02' W 122°08'0 0.0
2014-Nov-24 10:28N 38°02' W 122°08'0 0.0
2014-Nov-24 09:28N 38°02' W 122°08'0 0.0
2014-Nov-24 08:28N 38°02' W 122°08'0 0.0
2014-Nov-24 07:28N 38°02' W 122°08'0 0.3
2014-Nov-24 06:33N 38°02' W 122°08'1111.4
2014-Nov-24 05:33N 38°02' W 122°23'1312.7
2014-Nov-24 04:33N 37°49' W 122°25'1313.3
2014-Nov-24 03:34N 37°44' W 122°41'8 8.0
2014-Nov-24 02:33N 37°36' W 122°40'9 9.2
2014-Nov-24 01:33N 37°27' W 122°40'1615.7
2014-Nov-24 00:33N 37°11' W 122°40'1515.5
2014-Nov-23 23:33N 36°56' W 122°40'1615.8
2014-Nov-23 22:33N 36°40' W 122°37'1615.7
2014-Nov-23 21:33N 36°25' W 122°32'1515.3
2014-Nov-23 20:33N 36°10' W 122°27'1515.4
2014-Nov-23 19:33N 35°56' W 122°22'1615.8
2014-Nov-23 18:33N 35°41' W 122°16'1615.6
2014-Nov-23 17:33N 35°28' W 122°04'1514.9
2014-Nov-23 16:33N 35°17' W 121°53'1514.8
2014-Nov-23 15:33N 35°05' W 121°41'1515.3
2014-Nov-23 14:33N 34°53' W 121°30'1615.7
2014-Nov-23 13:33N 34°41' W 121°18'1514.8
2014-Nov-23 12:32N 34°29' W 121°06'3215.9
2014-Nov-23 10:33N 34°21' W 120°29'1616.3
2014-Nov-23 09:33N 34°17' W 120°10'1716.7
2014-Nov-23 08:33N 34°12' W 119°50'1717.3
2014-Nov-23 07:33N 34°07' W 119°30'1917.6
2014-Nov-23 06:30N 34°01' W 119°09'2811.8
2014-Nov-23 04:05N 33°47' W 118°39'610.6
2014-Nov-23 03:33N 33°44' W 118°33'1110.6
2014-Nov-23 02:33N 33°39' W 118°22'9 9.1
2014-Nov-23 01:33N 33°41' W 118°12'6 6.0
2014-Nov-23 00:33N 33°46' W 118°13'0 0.1
2014-Nov-22 23:33N 33°46' W 118°13'0 0.0
2014-Nov-22 22:33N 33°46' W 118°13'0 0.0
2014-Nov-22 21:30N 33°46' W 118°13'0 0.0
2014-Nov-22 20:33N 33°46' W 118°13'0 0.0
2014-Nov-22 19:33N 33°46' W 118°13'0 0.0
2014-Nov-22 18:33N 33°46' W 118°13'0 0.0
2014-Nov-22 17:33N 33°46' W 118°13'0 0.0
2014-Nov-22 16:33N 33°46' W 118°13'0 0.0
2014-Nov-22 15:33N 33°46' W 118°13'0 0.0
2014-Nov-22 14:33N 33°46' W 118°13'0 0.0
2014-Nov-22 13:33N 33°46' W 118°13'0 0.0
2014-Nov-22 12:33N 33°46' W 118°13'0 0.0
2014-Nov-22 11:33N 33°46' W 118°13'0 0.0
2014-Nov-22 10:33N 33°46' W 118°13'0 0.0
2014-Nov-22 09:33N 33°46' W 118°13'0 0.0
2014-Nov-22 08:33N 33°46' W 118°13'0 0.0
2014-Nov-22 07:33N 33°46' W 118°13'0 0.0
2014-Nov-22 06:33N 33°46' W 118°13'0 0.0
2014-Nov-22 05:33N 33°46' W 118°13'0 0.0
2014-Nov-22 04:33N 33°46' W 118°13'0 0.0
2014-Nov-22 03:33N 33°46' W 118°13'0 0.0
2014-Nov-22 02:33N 33°46' W 118°13'1 0.5
2014-Nov-22 01:33N 33°46' W 118°13'3110.2
2014-Nov-21 22:31N 33°16' W 118°03'1111.2
2014-Nov-21 21:33N 33°05' W 118°04'1414.0
2014-Nov-21 20:34N 32°55' W 117°53'1616.0
2014-Nov-21 19:33N 32°39' W 117°49'1716.7
2014-Nov-21 18:32N 32°22' W 117°50'1010.3
2014-Nov-21 17:33N 32°12' W 117°51'2 1.5
2014-Nov-21 16:33N 32°13' W 117°52'2 1.6
2014-Nov-21 15:29N 32°14' W 117°54'2 1.7
2014-Nov-21 14:07N 32°16' W 117°56'2 1.5
2014-Nov-21 13:06N 32°16' W 117°57'8915.0
2014-Nov-21 07:09N 32°01' W 119°41'  

Dump ship's entire track history